Time;durP1;ratioP1;P1;durP2;ratioP2;P2;SDS_P1;SDS_P2;PMS_P1;PMS_P2;Temp;Humidity;BMP_temperature;BMP_pressure;BME280_temperature;BME280_humidity;BME280_pressure;Samples;Min_cycle;Max_cycle;Signal;HPM_P1;HPM_P2
2023/04/24 00:00:26;;;;;;;7.55;2.80;;;14.00;61.40;;;;;;5048233;28;20103;-46
2023/04/24 00:03:00;;;;;;;2.55;2.30;;;14.00;61.40;;;;;;5048177;28;20507;-47
2023/04/24 00:05:32;;;;;;;3.80;2.85;;;14.00;61.60;;;;;;5048240;28;20037;-44
2023/04/24 00:08:02;;;;;;;3.92;2.40;;;14.00;61.60;;;;;;5048920;28;20059;-45
2023/04/24 00:10:33;;;;;;;4.05;3.22;;;14.00;61.60;;;;;;5049217;28;20045;-46
2023/04/24 00:13:21;;;;;;;3.00;2.70;;;13.90;61.70;;;;;;5044008;28;20056;-46
2023/04/24 00:15:55;;;;;;;3.80;3.22;;;13.90;61.60;;;;;;5045446;28;20049;-47
2023/04/24 00:18:37;;;;;;;3.90;3.25;;;13.90;61.60;;;;;;5041570;28;20040;-48
2023/04/24 00:21:21;;;;;;;4.10;3.70;;;13.90;61.40;;;;;;5042970;28;20102;-46
2023/04/24 00:23:59;;;;;;;3.72;2.95;;;13.90;61.40;;;;;;5048731;28;20095;-48
2023/04/24 00:26:35;;;;;;;3.08;2.70;;;13.80;61.40;;;;;;5043264;28;20452;-46
2023/04/24 00:29:11;;;;;;;3.97;3.40;;;13.80;61.40;;;;;;5048983;28;20624;-46
2023/04/24 00:31:47;;;;;;;5.13;3.97;;;13.80;61.40;;;;;;5021167;28;20049;-47
2023/04/24 00:34:16;;;;;;;4.80;3.95;;;13.80;61.50;;;;;;5042190;28;20041;-45
2023/04/24 00:36:49;;;;;;;;;;;13.80;61.50;;;;;;5049063;28;20106;-48
2023/04/24 00:39:25;;;;;;;6.53;3.92;;;13.80;61.60;;;;;;5048724;28;19927;-44
2023/04/24 00:41:59;;;;;;;3.85;3.55;;;13.70;61.50;;;;;;5038675;28;20041;-46
2023/04/24 00:44:31;;;;;;;3.92;3.60;;;13.70;61.70;;;;;;5042126;28;20029;-47
2023/04/24 00:47:07;;;;;;;3.95;3.55;;;13.70;61.70;;;;;;5049217;28;20087;-45
2023/04/24 00:49:47;;;;;;;4.53;3.63;;;13.70;61.90;;;;;;5036719;28;20033;-48
2023/04/24 00:52:17;;;;;;;6.50;3.83;;;13.70;62.10;;;;;;5039208;28;20052;-47
2023/04/24 00:54:54;;;;;;;6.03;3.60;;;13.70;62.10;;;;;;5034046;28;20052;-47
2023/04/24 00:57:32;;;;;;;5.65;4.03;;;13.70;62.20;;;;;;5037756;28;20735;-48
2023/04/24 01:00:17;;;;;;;5.60;4.53;;;13.70;62.10;;;;;;5048273;28;20033;-48
2023/04/24 01:02:57;;;;;;;5.22;3.90;;;13.70;62.20;;;;;;5041978;28;20803;-46
2023/04/24 01:05:37;;;;;;;4.68;4.00;;;13.70;62.20;;;;;;5044068;28;20096;-48
2023/04/24 01:08:12;;;;;;;7.40;4.25;;;13.70;63.00;;;;;;5048115;28;20049;-45
2023/04/24 01:10:46;;;;;;;5.70;3.67;;;13.70;62.20;;;;;;5045273;28;20122;-46
2023/04/24 01:13:24;;;;;;;5.20;4.30;;;13.70;62.20;;;;;;5031047;28;20041;-49
2023/04/24 01:15:53;;;;;;;6.95;4.95;;;13.70;62.30;;;;;;5049089;28;20471;-47
2023/04/24 01:18:27;;;;;;;4.68;4.28;;;13.70;62.20;;;;;;5041060;28;20045;-47
2023/04/24 01:21:03;;;;;;;6.20;4.63;;;13.70;62.40;;;;;;5034882;28;20037;-50
2023/04/24 01:23:33;;;;;;;5.00;4.50;;;13.70;62.40;;;;;;5040399;28;20052;-46
2023/04/24 01:26:04;;;;;;;8.13;5.28;;;13.60;62.20;;;;;;5026224;28;20045;-45
2023/04/24 01:28:44;;;;;;;8.25;5.53;;;13.60;62.30;;;;;;5030195;28;20052;-44
2023/04/24 01:31:21;;;;;;;8.25;5.72;;;13.60;63.20;;;;;;5047935;28;20049;-47
2023/04/24 01:33:53;;;;;;;5.85;4.78;;;13.60;62.50;;;;;;5045344;28;20033;-46
2023/04/24 01:36:25;;;;;;;5.90;5.00;;;13.60;62.40;;;;;;5048894;28;20041;-47
2023/04/24 01:38:56;;;;;;;7.88;5.60;;;13.60;62.40;;;;;;5047773;28;20064;-50
2023/04/24 01:41:27;;;;;;;8.68;6.68;;;13.60;62.50;;;;;;5048170;28;20029;-48
2023/04/24 01:44:11;;;;;;;7.80;5.80;;;13.60;62.40;;;;;;5024238;28;20595;-48
2023/04/24 01:47:01;;;;;;;;;;;;;;;;;;;;;
2023/04/24 01:49:40;;;;;;;8.88;6.28;;;13.50;62.50;;;;;;5029359;28;20056;-49
2023/04/24 01:52:17;;;;;;;8.07;6.68;;;13.50;62.50;;;;;;5033979;28;20045;-46
2023/04/24 01:55:09;;;;;;;8.25;6.68;;;13.50;62.40;;;;;;5034409;28;20060;-50
2023/04/24 01:57:52;;;;;;;10.32;7.78;;;13.50;62.40;;;;;;5029704;28;20414;-46
2023/04/24 02:00:23;;;;;;;9.82;7.53;;;13.50;62.60;;;;;;5049700;28;20045;-49
2023/04/24 02:02:56;;;;;;;8.43;6.95;;;13.50;62.60;;;;;;5044615;28;20046;-50
2023/04/24 02:05:29;;;;;;;11.20;7.60;;;13.40;62.70;;;;;;5020606;28;20038;-47
2023/04/24 02:08:14;;;;;;;10.40;8.13;;;13.40;62.70;;;;;;5029760;28;20087;-49
2023/04/24 02:10:44;;;;;;;10.23;8.20;;;13.40;63.00;;;;;;5051409;28;20061;-47
2023/04/24 02:13:18;;;;;;;9.65;8.02;;;13.40;63.00;;;;;;5046211;28;20057;-48
2023/04/24 02:16:09;;;;;;;10.80;7.90;;;13.40;63.00;;;;;;5043025;28;20045;-46
2023/04/24 02:18:50;;;;;;;12.18;8.43;;;13.40;63.10;;;;;;5051299;28;20141;-48
2023/04/24 02:21:23;;;;;;;15.10;9.38;;;13.40;63.00;;;;;;5036259;28;20048;-50
2023/04/24 02:23:55;;;;;;;12.43;8.05;;;13.40;63.00;;;;;;5039218;28;20053;-50
2023/04/24 02:26:31;;;;;;;14.50;9.07;;;13.40;63.00;;;;;;5050914;28;20045;-49
2023/04/24 02:28:58;;;;;;;15.68;8.25;;;13.40;63.20;;;;;;5033464;28;20041;-47
2023/04/24 02:31:33;;;;;;;10.77;8.13;;;13.40;63.00;;;;;;5047294;28;20045;-46
2023/04/24 02:34:00;;;;;;;11.05;8.63;;;13.40;63.00;;;;;;5028928;28;20505;-48
2023/04/24 02:36:36;;;;;;;13.13;9.82;;;13.40;63.10;;;;;;5049496;28;20048;-45
2023/04/24 02:39:13;;;;;;;12.57;9.07;;;13.40;63.20;;;;;;5049621;28;20049;-50
2023/04/24 02:41:49;;;;;;;15.15;9.80;;;13.40;63.20;;;;;;5031035;28;20056;-49
2023/04/24 02:44:18;;;;;;;10.50;9.20;;;13.40;63.40;;;;;;5047355;28;20082;-51
2023/04/24 02:46:48;;;;;;;;;;;13.40;63.30;;;;;;5034837;28;20079;-48
2023/04/24 02:49:23;;;;;;;14.40;8.55;;;13.40;63.30;;;;;;5048172;28;19921;-47
2023/04/24 02:52:04;;;;;;;10.13;8.20;;;13.40;63.10;;;;;;5042701;28;20079;-50
2023/04/24 02:54:41;;;;;;;10.93;8.70;;;13.40;63.00;;;;;;5040309;28;20049;-47
2023/04/24 02:57:13;;;;;;;14.13;9.43;;;13.40;63.20;;;;;;5028498;28;20446;-46
2023/04/24 02:59:57;;;;;;;16.17;8.85;;;13.40;63.30;;;;;;5016773;28;20056;-48
2023/04/24 03:02:29;;;;;;;14.30;8.88;;;13.30;63.20;;;;;;5032687;28;20489;-46
2023/04/24 03:05:13;;;;;;;12.13;8.07;;;13.30;63.10;;;;;;5029159;28;20041;-46
2023/04/24 03:07:46;;;;;;;11.05;8.05;;;13.30;63.20;;;;;;5032527;28;20049;-46
2023/04/24 03:10:25;;;;;;;10.75;7.93;;;13.30;63.30;;;;;;5050565;28;20045;-50
2023/04/24 03:13:15;;;;;;;9.55;8.55;;;13.30;63.20;;;;;;5043952;28;20071;-48
2023/04/24 03:15:48;;;;;;;9.60;7.80;;;13.30;63.30;;;;;;5033484;28;20513;-46
2023/04/24 03:18:23;;;;;;;10.88;8.85;;;13.30;63.30;;;;;;5050549;28;20066;-46
2023/04/24 03:21:13;;;;;;;12.07;8.50;;;13.30;63.20;;;;;;5016181;28;20574;-50
2023/04/24 03:23:45;;;;;;;12.20;8.65;;;13.30;63.30;;;;;;5034072;28;20051;-49
2023/04/24 03:26:12;;;;;;;10.05;8.52;;;13.40;63.50;;;;;;5050126;28;20049;-47
2023/04/24 03:28:58;;;;;;;10.75;7.93;;;13.30;63.30;;;;;;5032307;28;20098;-45
2023/04/24 03:31:33;;;;;;;9.65;7.70;;;13.30;63.30;;;;;;5027841;28;20045;-48
2023/04/24 03:34:09;;;;;;;9.80;8.05;;;13.30;63.40;;;;;;5026411;28;20087;-47
2023/04/24 03:36:52;;;;;;;11.68;8.48;;;13.30;63.40;;;;;;5045296;28;20041;-49
2023/04/24 03:39:42;;;;;;;11.48;8.07;;;13.30;63.40;;;;;;5032613;28;20051;-49
2023/04/24 03:42:16;;;;;;;10.00;7.32;;;13.30;63.30;;;;;;5030878;28;20409;-45
2023/04/24 03:44:54;;;;;;;;;;;13.30;63.30;;;;;;5041086;28;20102;-48
2023/04/24 03:47:31;;;;;;;9.63;6.75;;;13.30;63.20;;;;;;5032544;28;20015;-45
2023/04/24 03:50:08;;;;;;;9.63;7.65;;;13.30;63.00;;;;;;5025107;28;20041;-46
2023/04/24 03:52:52;;;;;;;8.50;7.60;;;13.30;63.00;;;;;;5020260;28;20049;-46
2023/04/24 03:55:36;;;;;;;8.57;7.60;;;13.20;63.00;;;;;;5025192;28;20500;-47
2023/04/24 03:58:13;;;;;;;9.50;7.40;;;13.30;63.20;;;;;;5027130;28;20055;-50
2023/04/24 04:00:51;;;;;;;8.00;7.10;;;13.20;63.20;;;;;;5025288;28;20092;-46
2023/04/24 04:03:48;;;;;;;8.20;7.00;;;13.20;63.20;;;;;;5026930;28;20509;-48
2023/04/24 04:06:24;;;;;;;7.93;6.68;;;13.20;63.20;;;;;;5031259;28;20057;-46
2023/04/24 04:08:58;;;;;;;9.63;6.90;;;13.20;63.00;;;;;;5042049;28;20706;-48
2023/04/24 04:11:38;;;;;;;7.65;6.38;;;13.20;63.10;;;;;;5025574;28;20042;-50
2023/04/24 04:14:07;;;;;;;8.75;5.93;;;13.20;63.20;;;;;;5031556;28;20041;-46
2023/04/24 04:16:38;;;;;;;7.32;6.53;;;13.10;63.20;;;;;;5029749;28;20043;-48
2023/04/24 04:19:11;;;;;;;9.65;6.85;;;13.10;63.30;;;;;;5036805;28;20049;-48
2023/04/24 04:21:40;;;;;;;10.00;6.97;;;13.10;63.50;;;;;;5031772;28;20386;-46
2023/04/24 04:24:31;;;;;;;8.20;6.90;;;13.10;63.70;;;;;;5029524;28;20041;-49
2023/04/24 04:27:21;;;;;;;8.00;7.18;;;13.00;64.00;;;;;;5022797;28;20496;-44
2023/04/24 04:29:56;;;;;;;9.63;7.30;;;13.00;64.80;;;;;;5034701;28;20847;-46
2023/04/24 04:32:23;;;;;;;12.07;7.22;;;12.90;64.20;;;;;;5020313;28;20041;-46
2023/04/24 04:34:53;;;;;;;8.95;6.85;;;12.90;64.50;;;;;;5032114;28;20547;-50
2023/04/24 04:37:21;;;;;;;8.43;6.97;;;12.90;64.70;;;;;;5031549;28;20048;-44
2023/04/24 04:40:11;;;;;;;7.68;6.82;;;12.80;64.60;;;;;;5023807;28;20740;-47
2023/04/24 04:42:47;;;;;;;8.65;7.22;;;12.80;64.80;;;;;;5027504;28;20053;-48
2023/04/24 04:45:16;;;;;;;9.25;7.40;;;12.80;65.00;;;;;;5022654;28;20045;-48
2023/04/24 04:48:07;;;;;;;8.68;7.60;;;12.70;65.40;;;;;;5042609;28;20045;-50
2023/04/24 04:50:35;;;;;;;8.90;7.47;;;12.70;65.60;;;;;;5021122;28;20049;-50
2023/04/24 04:53:06;;;;;;;9.17;7.17;;;12.70;65.80;;;;;;5038896;28;20049;-46
2023/04/24 04:55:39;;;;;;;7.47;6.75;;;12.70;65.70;;;;;;5032715;28;20501;-49
2023/04/24 04:58:17;;;;;;;7.60;6.80;;;12.60;66.00;;;;;;5025564;28;20406;-46
2023/04/24 05:00:45;;;;;;;8.15;7.05;;;12.60;66.00;;;;;;5025916;28;20034;-47
2023/04/24 05:03:22;;;;;;;12.32;7.03;;;12.60;66.00;;;;;;5031254;28;20671;-46
2023/04/24 05:05:57;;;;;;;9.43;7.07;;;12.60;66.00;;;;;;5029984;28;20179;-47
2023/04/24 05:08:26;;;;;;;8.13;6.85;;;12.50;66.00;;;;;;5023014;28;20041;-48
2023/04/24 05:10:55;;;;;;;10.18;7.78;;;12.50;66.20;;;;;;5048930;28;20045;-45
2023/04/24 05:13:26;;;;;;;9.98;7.25;;;12.50;66.30;;;;;;5022925;28;20132;-46
2023/04/24 05:16:16;;;;;;;9.23;7.25;;;12.50;66.60;;;;;;5036038;28;20151;-46
2023/04/24 05:18:49;;;;;;;8.10;6.75;;;12.50;67.00;;;;;;5048079;22;20131;-44
2023/04/24 05:21:20;;;;;;;8.18;7.32;;;12.50;67.20;;;;;;5034900;28;20558;-46
2023/04/24 05:23:50;;;;;;;8.13;7.05;;;12.50;67.20;;;;;;5071748;28;20037;-45
2023/04/24 05:26:29;;;;;;;7.28;6.57;;;12.60;67.50;;;;;;5072828;28;20060;-45
2023/04/24 05:28:58;;;;;;;8.77;7.05;;;12.60;67.50;;;;;;5040471;28;20750;-43
2023/04/24 05:31:27;;;;;;;9.25;6.78;;;12.60;67.50;;;;;;5035054;28;20042;-44
2023/04/24 05:33:54;;;;;;;8.18;6.97;;;12.60;67.60;;;;;;5033208;28;20128;-44
2023/04/24 05:36:21;;;;;;;6.95;6.30;;;12.70;67.70;;;;;;5032892;28;20041;-44
2023/04/24 05:38:48;;;;;;;7.63;6.70;;;12.70;67.60;;;;;;5028280;28;20056;-46
2023/04/24 05:41:15;;;;;;;8.52;6.18;;;12.70;67.50;;;;;;5026640;28;20099;-47
2023/04/24 05:43:41;;;;;;;7.25;6.55;;;12.70;67.50;;;;;;5046937;28;20049;-44
2023/04/24 05:46:09;;;;;;;8.57;6.68;;;12.60;67.80;;;;;;5027444;28;20056;-45
2023/04/24 05:48:36;;;;;;;7.07;6.38;;;12.60;67.90;;;;;;5030697;28;20139;-44
2023/04/24 05:51:06;;;;;;;6.80;5.53;;;12.60;67.90;;;;;;5042396;28;20048;-44
2023/04/24 05:53:33;;;;;;;7.75;6.47;;;12.50;68.00;;;;;;5031204;28;20045;-46
2023/04/24 05:56:03;;;;;;;6.28;5.68;;;12.50;68.20;;;;;;5022699;28;20631;-47
2023/04/24 05:58:31;;;;;;;6.72;6.13;;;12.40;68.20;;;;;;5025162;28;20046;-48
2023/04/24 06:01:00;;;;;;;7.43;5.30;;;12.40;68.40;;;;;;5035525;28;20044;-44
2023/04/24 06:03:28;;;;;;;6.70;5.68;;;12.30;68.60;;;;;;5014546;28;20041;-47
2023/04/24 06:05:55;;;;;;;6.22;5.72;;;12.30;68.90;;;;;;5031583;28;20076;-44
2023/04/24 06:08:25;;;;;;;8.02;5.03;;;12.20;68.90;;;;;;5050586;28;20072;-48
2023/04/24 06:10:54;;;;;;;6.68;5.25;;;12.20;69.10;;;;;;5027417;28;20455;-45
2023/04/24 06:13:21;;;;;;;5.85;4.70;;;12.20;69.30;;;;;;5034083;28;20041;-48
2023/04/24 06:16:11;;;;;;;5.78;4.72;;;12.10;69.40;;;;;;5048239;28;20063;-49
2023/04/24 06:18:40;;;;;;;5.05;4.22;;;12.10;69.50;;;;;;5033417;28;20053;-44
2023/04/24 06:21:07;;;;;;;5.05;3.80;;;12.10;69.60;;;;;;5033004;28;20048;-45
2023/04/24 06:23:36;;;;;;;4.90;3.72;;;12.10;70.40;;;;;;5021171;28;20453;-45
2023/04/24 06:26:05;;;;;;;7.47;4.05;;;12.10;69.80;;;;;;5047633;28;20049;-46
2023/04/24 06:28:32;;;;;;;3.95;3.40;;;12.00;70.00;;;;;;5039029;28;20178;-48
2023/04/24 06:30:58;;;;;;;3.15;2.85;;;12.00;70.10;;;;;;5047139;28;20041;-46
2023/04/24 06:33:25;;;;;;;4.45;3.83;;;12.00;70.10;;;;;;5029549;28;20049;-44
2023/04/24 06:35:56;;;;;;;3.90;3.55;;;12.00;70.20;;;;;;5022484;28;20045;-50
2023/04/24 06:38:23;;;;;;;3.15;2.85;;;12.00;70.90;;;;;;5038871;28;20041;-46
2023/04/24 06:40:49;;;;;;;3.25;2.47;;;11.90;70.30;;;;;;5048651;28;20055;-46
2023/04/24 06:43:19;;;;;;;3.53;2.55;;;11.90;70.40;;;;;;5035004;28;20103;-45
2023/04/24 06:45:46;;;;;;;3.97;2.30;;;11.90;70.40;;;;;;5038550;28;20402;-44
2023/04/24 06:48:15;;;;;;;1.20;1.10;;;11.80;70.70;;;;;;5046071;28;20090;-46
2023/04/24 06:50:44;;;;;;;1.45;0.90;;;11.80;70.50;;;;;;5042522;28;20052;-45
2023/04/24 06:53:14;;;;;;;1.60;0.80;;;11.80;70.60;;;;;;5041563;28;20053;-48
2023/04/24 06:55:41;;;;;;;2.08;1.10;;;11.70;71.10;;;;;;5041170;28;20076;-45
2023/04/24 06:58:08;;;;;;;1.92;0.63;;;11.60;71.50;;;;;;5020988;28;20401;-45
2023/04/24 07:00:35;;;;;;;1.80;0.75;;;11.60;71.50;;;;;;5043380;28;20076;-49
2023/04/24 07:03:02;;;;;;;2.60;0.82;;;11.50;71.60;;;;;;5042901;28;20563;-49
2023/04/24 07:05:38;;;;;;;2.50;1.00;;;11.40;71.90;;;;;;5048216;28;20079;-47
2023/04/24 07:08:06;;;;;;;2.08;0.70;;;11.30;72.30;;;;;;5048287;28;20041;-45
2023/04/24 07:10:37;;;;;;;2.05;0.90;;;11.20;72.80;;;;;;5031798;28;20040;-46
2023/04/24 07:13:03;;;;;;;1.60;0.82;;;11.10;73.30;;;;;;5039988;28;20045;-48
2023/04/24 07:15:32;;;;;;;2.10;0.57;;;11.00;73.70;;;;;;5043377;28;20505;-46
2023/04/24 07:18:03;;;;;;;0.93;0.60;;;11.00;74.00;;;;;;5036506;28;20042;-45
2023/04/24 07:20:33;;;;;;;0.80;0.80;;;10.90;74.30;;;;;;5051041;28;20044;-45
2023/04/24 07:23:00;;;;;;;2.67;0.73;;;10.90;74.60;;;;;;5050192;28;20045;-53
2023/04/24 07:25:28;;;;;;;1.67;0.93;;;10.90;74.80;;;;;;5044503;28;20096;-47
2023/04/24 07:27:57;;;;;;;0.98;0.88;;;10.80;75.10;;;;;;5041085;28;20100;-45
2023/04/24 07:30:24;;;;;;;1.27;1.00;;;10.80;75.30;;;;;;5042763;28;20416;-46
2023/04/24 07:32:51;;;;;;;0.70;0.70;;;10.80;75.50;;;;;;5043951;28;20484;-50
2023/04/24 07:35:22;;;;;;;1.27;1.17;;;10.80;75.90;;;;;;5040018;28;20052;-46
2023/04/24 07:37:50;;;;;;;2.63;1.98;;;10.80;76.00;;;;;;5040708;28;20054;-45
2023/04/24 07:40:21;;;;;;;2.25;1.90;;;10.80;76.30;;;;;;5036098;28;20516;-45
2023/04/24 07:42:50;;;;;;;2.55;2.28;;;10.80;76.40;;;;;;5031011;28;20472;-47
2023/04/24 07:45:16;;;;;;;3.83;2.80;;;10.80;76.60;;;;;;5048599;28;20516;-45
2023/04/24 07:47:45;;;;;;;3.45;3.08;;;10.80;76.90;;;;;;5037227;28;20076;-45
2023/04/24 07:50:12;;;;;;;4.20;3.70;;;10.80;77.00;;;;;;5035626;28;20561;-45
2023/04/24 07:52:39;;;;;;;6.13;4.28;;;10.80;77.30;;;;;;5036171;28;20056;-45
2023/04/24 07:55:06;;;;;;;6.05;4.43;;;10.80;77.50;;;;;;5034650;28;20040;-46
2023/04/24 07:57:33;;;;;;;4.90;4.15;;;10.80;78.00;;;;;;5041333;28;20035;-50
2023/04/24 08:00:00;;;;;;;6.07;4.43;;;10.90;78.10;;;;;;5046281;28;20037;-52
2023/04/24 08:02:37;;;;;;;7.22;4.78;;;11.00;78.20;;;;;;5045870;28;20117;-45
2023/04/24 08:05:04;;;;;;;6.95;5.00;;;11.00;78.10;;;;;;5039119;28;20044;-45
2023/04/24 08:07:35;;;;;;;9.35;5.00;;;11.00;78.00;;;;;;5033927;28;20040;-47
2023/04/24 08:10:04;;;;;;;5.18;4.68;;;11.00;78.10;;;;;;5041177;28;20037;-49
2023/04/24 08:12:30;;;;;;;6.13;4.70;;;11.00;78.00;;;;;;5035656;28;20037;-46
2023/04/24 08:14:59;;;;;;;3.97;3.65;;;11.00;78.00;;;;;;5033968;28;20107;-47
2023/04/24 08:17:26;;;;;;;8.63;4.03;;;11.00;78.10;;;;;;5035791;28;20064;-50
2023/04/24 08:19:58;;;;;;;5.43;4.45;;;11.00;78.20;;;;;;5047063;28;20489;-47
2023/04/24 08:22:28;;;;;;;7.65;5.65;;;11.00;78.30;;;;;;5042946;28;20033;-45
2023/04/24 08:24:59;;;;;;;7.63;5.17;;;11.00;78.40;;;;;;5042411;28;20056;-46
2023/04/24 08:27:30;;;;;;;7.28;5.60;;;11.00;78.60;;;;;;5037879;28;20040;-47
2023/04/24 08:29:57;;;;;;;9.65;5.32;;;11.00;78.70;;;;;;5040400;28;20068;-46
2023/04/24 08:32:23;;;;;;;8.63;6.22;;;11.00;78.80;;;;;;5046721;28;20053;-45
2023/04/24 08:34:52;;;;;;;6.82;5.30;;;11.00;78.90;;;;;;5038578;28;20085;-47
2023/04/24 08:37:23;;;;;;;11.02;6.03;;;11.00;78.90;;;;;;5039294;28;20641;-48
2023/04/24 08:39:50;;;;;;;10.40;6.18;;;11.00;79.00;;;;;;5046946;28;20045;-46
2023/04/24 08:42:18;;;;;;;7.57;5.78;;;11.00;78.80;;;;;;5041421;28;20037;-47
2023/04/24 08:44:48;;;;;;;10.75;6.07;;;11.00;78.80;;;;;;5043462;28;20697;-45
2023/04/24 08:47:17;;;;;;;9.20;5.13;;;11.00;78.80;;;;;;5044773;28;20050;-46
2023/04/24 08:49:45;;;;;;;7.88;5.47;;;11.00;78.80;;;;;;5033845;28;20047;-46
2023/04/24 08:52:13;;;;;;;7.90;4.90;;;11.00;78.90;;;;;;5046813;28;20465;-49
2023/04/24 08:54:43;;;;;;;6.50;4.82;;;11.00;79.10;;;;;;5041455;28;20052;-47
2023/04/24 08:57:11;;;;;;;12.20;5.75;;;11.00;79.20;;;;;;5039437;28;20658;-47
2023/04/24 08:59:38;;;;;;;13.35;6.10;;;10.90;79.50;;;;;;5037253;28;20430;-45
2023/04/24 09:02:05;;;;;;;9.35;5.53;;;10.90;79.70;;;;;;5040811;28;20696;-48
2023/04/24 09:04:33;;;;;;;11.88;6.00;;;10.90;79.90;;;;;;5028111;28;20046;-45
2023/04/24 09:07:04;;;;;;;11.18;6.68;;;11.00;80.20;;;;;;5037591;28;20048;-49
2023/04/24 09:09:35;;;;;;;8.93;6.38;;;11.00;80.30;;;;;;5042321;28;20037;-48
2023/04/24 09:12:03;;;;;;;8.73;6.30;;;11.00;80.40;;;;;;5032398;28;20037;-46
2023/04/24 09:14:31;;;;;;;8.57;6.80;;;11.00;80.50;;;;;;5038065;28;20528;-45
2023/04/24 09:16:58;;;;;;;11.98;8.25;;;11.10;80.60;;;;;;5045668;28;20502;-48
2023/04/24 09:19:25;;;;;;;10.68;7.22;;;11.10;80.80;;;;;;5039931;28;20045;-46
2023/04/24 09:21:53;;;;;;;11.38;7.30;;;11.10;81.00;;;;;;5033633;28;20097;-48
2023/04/24 09:24:22;;;;;;;8.90;7.13;;;11.10;81.30;;;;;;5040412;28;20041;-47
2023/04/24 09:27:01;;;;;;;10.82;6.50;;;11.20;81.50;;;;;;5042186;28;20091;-45
2023/04/24 09:29:31;;;;;;;10.00;7.00;;;11.20;82.20;;;;;;5036459;28;20044;-45
2023/04/24 09:31:59;;;;;;;11.68;7.07;;;11.30;82.10;;;;;;5040416;28;20469;-48
2023/04/24 09:34:27;;;;;;;8.80;6.25;;;11.30;82.00;;;;;;5041361;28;20036;-45
2023/04/24 09:36:54;;;;;;;12.63;6.93;;;11.40;82.30;;;;;;5041752;28;20068;-45
2023/04/24 09:39:20;;;;;;;10.93;6.43;;;11.50;82.80;;;;;;5040809;28;20083;-48
2023/04/24 09:42:06;;;;;;;11.27;7.30;;;11.50;83.20;;;;;;5034156;28;20486;-46
2023/04/24 09:44:34;;;;;;;11.40;6.70;;;11.70;84.80;;;;;;5029496;28;20041;-45
2023/04/24 09:47:01;;;;;;;10.82;6.07;;;11.70;83.90;;;;;;5036791;28;20045;-51
2023/04/24 09:49:33;;;;;;;12.70;6.70;;;11.80;83.90;;;;;;5042354;28;20547;-46
2023/04/24 09:52:05;;;;;;;;;;;11.90;83.60;;;;;;5039867;28;20072;-46
2023/04/24 09:54:36;;;;;;;11.20;5.78;;;12.00;85.00;;;;;;5033870;28;19921;-45
2023/04/24 09:57:08;;;;;;;7.85;5.60;;;12.00;81.60;;;;;;5040312;28;20052;-45
2023/04/24 09:59:34;;;;;;;9.70;5.78;;;12.10;81.10;;;;;;5039419;28;20049;-45
2023/04/24 10:02:19;;;;;;;7.97;5.50;;;12.00;80.70;;;;;;5036650;28;20042;-46
2023/04/24 10:04:56;;;;;;;8.75;5.45;;;12.00;81.30;;;;;;5020190;28;20056;-45
2023/04/24 10:07:26;;;;;;;8.77;4.80;;;12.00;81.60;;;;;;5039549;28;20041;-45
2023/04/24 10:09:53;;;;;;;9.13;4.78;;;11.90;81.50;;;;;;5037500;28;20042;-46
2023/04/24 10:12:23;;;;;;;6.80;4.50;;;11.90;81.60;;;;;;5035128;28;20041;-45
2023/04/24 10:14:50;;;;;;;6.65;4.57;;;11.90;81.60;;;;;;5039572;28;20038;-45
2023/04/24 10:17:20;;;;;;;12.15;5.82;;;11.90;81.80;;;;;;5043480;28;20053;-50
2023/04/24 10:19:47;;;;;;;8.77;5.00;;;11.90;82.10;;;;;;5040806;28;20068;-48
2023/04/24 10:22:16;;;;;;;9.73;5.18;;;12.00;82.30;;;;;;5042624;28;20037;-46
2023/04/24 10:24:44;;;;;;;13.98;4.75;;;12.00;82.60;;;;;;5044019;28;20041;-48
2023/04/24 10:27:15;;;;;;;9.82;4.80;;;12.00;82.40;;;;;;5043670;28;20063;-49
2023/04/24 10:29:44;;;;;;;9.00;4.57;;;12.10;82.70;;;;;;5042169;28;20038;-45
2023/04/24 10:32:12;;;;;;;8.45;4.30;;;12.10;82.60;;;;;;5050659;28;20505;-45
2023/04/24 10:34:39;;;;;;;11.32;5.10;;;12.10;82.40;;;;;;5032780;28;20045;-43
2023/04/24 10:37:06;;;;;;;7.15;4.05;;;12.20;82.30;;;;;;5041393;28;20418;-47
2023/04/24 10:39:37;;;;;;;6.60;4.18;;;12.20;82.30;;;;;;5041695;28;20041;-44
2023/04/24 10:42:16;;;;;;;9.15;4.07;;;12.20;82.60;;;;;;5032216;28;20045;-44
2023/04/24 10:44:48;;;;;;;9.45;4.68;;;12.30;83.40;;;;;;5046327;28;20556;-45
2023/04/24 10:47:15;;;;;;;8.98;4.35;;;12.30;83.30;;;;;;5040780;28;20092;-45
2023/04/24 10:49:43;;;;;;;8.68;4.93;;;12.40;83.90;;;;;;5044741;28;20045;-45
2023/04/24 10:52:09;;;;;;;8.93;4.93;;;12.50;84.70;;;;;;5048999;28;20045;-45
2023/04/24 10:54:40;;;;;;;8.52;4.25;;;12.60;84.80;;;;;;5032062;28;20041;-45
2023/04/24 10:57:22;;;;;;;10.57;4.55;;;12.70;85.10;;;;;;5041250;28;20049;-44
2023/04/24 11:00:09;;;;;;;10.32;5.65;;;12.90;85.30;;;;;;5028196;28;20045;-45
2023/04/24 11:02:43;;;;;;;9.90;5.05;;;13.00;84.70;;;;;;5031506;28;20436;-44
2023/04/24 11:05:16;;;;;;;11.15;4.85;;;13.10;84.40;;;;;;5040613;28;20072;-45
2023/04/24 11:08:15;;;;;;;7.50;4.25;;;13.20;83.60;;;;;;5042097;28;20054;-46
2023/04/24 11:10:55;;;;;;;6.13;3.40;;;13.30;83.00;;;;;;5045190;28;20053;-45
2023/04/24 11:13:27;;;;;;;8.90;3.40;;;13.40;82.00;;;;;;5031129;28;20048;-44
2023/04/24 11:16:14;;;;;;;7.82;4.43;;;13.50;81.20;;;;;;5040923;28;20049;-45
2023/04/24 11:18:50;;;;;;;5.72;2.88;;;13.50;80.60;;;;;;5040122;28;20049;-45
2023/04/24 11:21:17;;;;;;;7.95;3.95;;;13.50;79.20;;;;;;5033969;28;20120;-48
2023/04/24 11:23:45;;;;;;;6.75;3.42;;;13.60;79.50;;;;;;5048401;28;20072;-47
2023/04/24 11:26:19;;;;;;;5.38;3.25;;;13.60;79.60;;;;;;5037186;28;20421;-47
2023/04/24 11:28:53;;;;;;;7.25;3.08;;;13.60;79.30;;;;;;5039793;28;20456;-44
2023/04/24 11:31:38;;;;;;;4.80;2.97;;;13.60;79.00;;;;;;5043818;28;20568;-46
2023/04/24 11:34:19;;;;;;;9.00;2.90;;;13.70;78.80;;;;;;5038928;28;20044;-48
2023/04/24 11:36:47;;;;;;;6.43;2.70;;;13.70;78.60;;;;;;5040046;28;20505;-44
2023/04/24 11:39:22;;;;;;;4.35;2.42;;;13.80;78.50;;;;;;5037963;28;20111;-45
2023/04/24 11:41:50;;;;;;;7.30;1.98;;;13.90;78.40;;;;;;5043918;28;20052;-49
2023/04/24 11:44:26;;;;;;;2.40;1.58;;;14.00;77.50;;;;;;5048901;28;20045;-45
2023/04/24 11:46:59;;;;;;;4.03;1.35;;;14.00;75.60;;;;;;5040425;28;20586;-45
2023/04/24 11:49:28;;;;;;;3.88;1.55;;;14.10;73.90;;;;;;5038130;28;20037;-45
2023/04/24 11:52:07;;;;;;;3.15;1.50;;;14.10;73.00;;;;;;5044120;28;20054;-45
2023/04/24 11:54:34;;;;;;;3.50;1.85;;;14.10;72.50;;;;;;5042561;28;20044;-48
2023/04/24 11:57:09;;;;;;;3.42;1.33;;;14.10;72.40;;;;;;5041473;28;20049;-48
2023/04/24 11:59:38;;;;;;;2.05;1.33;;;14.10;72.00;;;;;;5040502;28;20041;-45
2023/04/24 12:02:06;;;;;;;4.25;1.52;;;14.10;70.70;;;;;;5047064;28;20040;-46
2023/04/24 12:04:40;;;;;;;2.25;1.63;;;14.00;69.50;;;;;;5037706;28;20059;-46
2023/04/24 12:07:10;;;;;;;3.25;1.25;;;14.00;69.40;;;;;;5041410;28;20079;-52
2023/04/24 12:10:02;;;;;;;4.88;2.05;;;14.00;69.10;;;;;;5049251;28;20041;-49
2023/04/24 12:12:29;;;;;;;3.15;1.10;;;14.00;68.10;;;;;;5037435;28;20060;-46
2023/04/24 12:15:00;;;;;;;5.47;2.35;;;13.90;68.00;;;;;;5039940;28;20054;-45
2023/04/24 12:17:32;;;;;;;5.97;2.08;;;13.90;67.30;;;;;;5034135;28;20045;-48
2023/04/24 12:20:10;;;;;;;3.03;1.50;;;13.80;66.80;;;;;;5045929;28;20068;-44
2023/04/24 12:22:56;;;;;;;2.47;1.55;;;13.90;67.00;;;;;;5043680;28;20364;-48
2023/04/24 12:25:26;;;;;;;3.03;1.85;;;13.80;67.40;;;;;;5042529;28;20045;-45
2023/04/24 12:28:12;;;;;;;3.90;1.80;;;13.80;67.20;;;;;;5040260;28;20056;-47
2023/04/24 12:30:48;;;;;;;3.88;1.65;;;13.80;66.30;;;;;;5046257;28;20129;-45
2023/04/24 12:33:19;;;;;;;3.42;1.70;;;13.70;66.10;;;;;;5040886;28;20050;-46
2023/04/24 12:35:51;;;;;;;3.45;2.05;;;13.70;66.20;;;;;;5044768;28;20050;-45
2023/04/24 12:38:22;;;;;;;6.00;1.92;;;13.80;67.70;;;;;;5044719;28;20064;-46
2023/04/24 12:41:19;;;;;;;2.72;2.20;;;13.80;67.30;;;;;;5046210;28;20051;-44
2023/04/24 12:43:52;;;;;;;5.00;2.13;;;13.90;67.00;;;;;;5044224;28;20124;-44
2023/04/24 12:46:21;;;;;;;3.88;1.85;;;14.00;67.60;;;;;;5040696;28;20062;-45
2023/04/24 12:48:51;;;;;;;4.22;2.25;;;14.20;67.80;;;;;;5042876;28;20037;-44
2023/04/24 12:51:18;;;;;;;3.10;2.10;;;14.30;67.30;;;;;;5033897;28;20033;-45
2023/04/24 12:53:44;;;;;;;2.35;1.65;;;14.50;66.90;;;;;;5029631;28;20053;-44
2023/04/24 12:56:12;;;;;;;2.95;1.98;;;14.60;66.70;;;;;;5030687;28;20045;-48
2023/04/24 12:58:46;;;;;;;5.80;2.28;;;14.80;66.30;;;;;;5037386;28;20456;-47
2023/04/24 13:01:13;;;;;;;4.32;2.13;;;14.90;65.80;;;;;;5045137;28;20743;-43
2023/04/24 13:03:42;;;;;;;3.03;1.75;;;15.00;65.40;;;;;;5023162;28;20132;-47
2023/04/24 13:06:12;;;;;;;3.42;1.60;;;15.00;64.60;;;;;;5033887;28;20045;-45
2023/04/24 13:08:39;;;;;;;4.25;1.50;;;15.00;64.30;;;;;;5045524;28;20042;-44
2023/04/24 13:11:06;;;;;;;7.28;3.13;;;15.00;64.30;;;;;;5046260;28;20079;-45
2023/04/24 13:13:33;;;;;;;4.07;1.67;;;15.00;63.70;;;;;;5041737;28;20512;-44
2023/04/24 13:16:02;;;;;;;2.65;1.52;;;14.90;63.20;;;;;;5041901;28;20048;-43